Ayers, Illinois
Current Conditions -  °F | °C
As of 2:55 AM on Friday 31 Oct 2014 (Local Time) from K3LF Reporting Station
Overcast Overcast  
Wind Chill: 40°   Ceiling: 3400
Heat Index: 44°   Visibility: 7mi
Dew Point: 42°   Wind: 7mph
Humidity: 93%   Direction: 340°NNW
Pressure: 30.08"   Gusts: NA
Location:  38.895°N, 89.397°W
Report Text: K3LF 310755Z AUTO 34006KT 7SM OVC034 07/06 A3008 RMK AO2 T00660055
Loading
Personal Weather Stations






























Interactive Weather Map New forecast layout! Learn more

10-Day Weather Forecast

Advertisements
Track Severe Weather on mobile